createdAt,value
2017-12-05T00:05:08.472Z,42.4
2017-12-05T00:25:37.355Z,41.7
2017-12-05T00:35:52.055Z,40.7
2017-12-05T00:46:06.821Z,40.2
2017-12-05T00:56:21.246Z,40.2
2017-12-05T01:06:34.907Z,40.6
2017-12-05T01:16:48.882Z,41.1
2017-12-05T01:27:03.008Z,41.3
2017-12-05T01:37:18.222Z,41.6
2017-12-05T01:47:32.555Z,40.7
2017-12-05T01:57:46.002Z,39.8
2017-12-05T02:07:59.849Z,38.9
2017-12-05T02:18:13.113Z,39.1
2017-12-05T02:28:26.688Z,39.5
2017-12-05T02:38:41.705Z,39.6
2017-12-05T02:48:55.787Z,39.1
2017-12-05T02:59:09.740Z,39.7
2017-12-05T03:09:23.379Z,40.2
2017-12-05T03:19:36.833Z,41
2017-12-05T03:29:50.766Z,41.1
2017-12-05T03:40:04.876Z,41.3
2017-12-05T03:50:18.175Z,39.6
2017-12-05T04:00:33.383Z,36.8
2017-12-05T04:10:47.788Z,35.3
2017-12-05T04:21:01.946Z,34.1
2017-12-05T04:31:16.243Z,32.9
2017-12-05T04:41:30.954Z,31.8
2017-12-05T04:51:45.207Z,31.2
2017-12-05T05:02:00.117Z,31.4
2017-12-05T05:12:14.465Z,32.2
2017-12-05T05:22:28.856Z,31.6
2017-12-05T05:32:43.082Z,31.7
2017-12-05T05:42:56.859Z,31.6
2017-12-05T05:53:10.466Z,31.6
2017-12-05T06:03:24.067Z,31.8
2017-12-05T06:13:38.923Z,31.5
2017-12-05T06:23:52.221Z,32.2
2017-12-05T06:34:06.277Z,32.4
2017-12-05T06:44:19.850Z,32.5
2017-12-05T06:54:33.802Z,33
2017-12-05T07:04:48.109Z,33
2017-12-05T07:15:03.083Z,33
2017-12-05T07:25:17.686Z,32.9
2017-12-05T07:35:32.121Z,32.8
2017-12-05T07:45:45.481Z,32.9
2017-12-05T07:56:00.622Z,33
2017-12-05T08:06:14.229Z,32.9
2017-12-05T08:16:29.478Z,33.2
2017-12-05T08:26:44.334Z,34
2017-12-05T08:36:58.981Z,34.4
2017-12-05T08:47:14.060Z,34.8
2017-12-05T08:57:28.964Z,35.5
2017-12-05T09:07:43.050Z,35.7
2017-12-05T09:17:56.929Z,36.8
2017-12-05T09:28:10.612Z,37.4
2017-12-05T09:38:24.712Z,37.9
2017-12-05T09:48:39.851Z,38.2
2017-12-05T09:58:54.877Z,40.2
2017-12-05T10:09:09.582Z,41.7
2017-12-05T10:19:23.609Z,45.2
2017-12-05T10:29:37.243Z,46.8
2017-12-05T10:39:51.685Z,48.2
2017-12-05T10:50:05.765Z,50.6
2017-12-05T11:00:20.212Z,51.5
2017-12-05T11:10:33.992Z,53.4
2017-12-05T11:20:48.715Z,54.6
2017-12-05T11:31:03.637Z,56.9
2017-12-05T11:41:18.292Z,58.8
2017-12-05T11:51:32.317Z,60.6
2017-12-05T12:01:47.532Z,62.2
2017-12-05T12:12:01.857Z,64.4
2017-12-05T12:22:15.766Z,67.7
2017-12-05T12:32:29.399Z,69.7
2017-12-05T12:42:43.558Z,70.2
2017-12-05T12:52:58.827Z,71
2017-12-05T13:03:13.788Z,71.4
2017-12-05T13:13:28.523Z,70.3
2017-12-05T13:23:41.881Z,71.5
2017-12-05T13:33:56.799Z,70.6
2017-12-05T13:44:11.092Z,72.3
2017-12-05T13:54:26.265Z,73.5
2017-12-05T14:14:54.901Z,73.8
2017-12-05T14:25:08.638Z,76.3
2017-12-05T14:35:22.640Z,78.7
2017-12-05T14:45:36.377Z,79
2017-12-05T14:55:51.018Z,78.1
2017-12-05T15:06:06.297Z,77.7
2017-12-05T15:26:34.549Z,77.2
2017-12-05T15:36:49.145Z,76.6
2017-12-05T15:57:18.332Z,75.8
2017-12-05T16:07:32.353Z,75.7
2017-12-05T16:17:46.807Z,75.6
2017-12-05T16:28:01.776Z,76.5
2017-12-05T16:38:15.549Z,74.6
2017-12-05T16:48:29.513Z,75.7
2017-12-05T16:58:42.948Z,77.8
2017-12-05T17:08:56.857Z,79.5
2017-12-05T17:19:11.178Z,78.9
2017-12-05T17:29:25.243Z,79.3
2017-12-05T17:39:38.615Z,79.9
2017-12-05T17:49:53.834Z,81.5
2017-12-05T18:00:07.384Z,81.5
2017-12-05T18:10:20.667Z,81.3
2017-12-05T18:20:35.814Z,80.9
2017-12-05T18:30:51.011Z,80.6
2017-12-05T18:41:05.035Z,81
2017-12-05T18:51:19.493Z,80.9
2017-12-05T19:01:32.801Z,82.7
2017-12-05T19:11:46.107Z,82.2
2017-12-05T19:22:00.255Z,81.6
2017-12-05T19:32:15.325Z,81.2
2017-12-05T19:42:29.319Z,79.7
2017-12-05T19:52:42.892Z,80.3
2017-12-05T20:02:58.153Z,81
2017-12-05T20:13:11.633Z,81.4
2017-12-05T20:23:25.286Z,82.5
2017-12-05T20:33:40.556Z,82.8
2017-12-05T20:43:55.622Z,83.7
2017-12-05T20:54:10.810Z,82.3
2017-12-05T21:04:24.612Z,82.6
2017-12-05T21:14:38.472Z,82.9
2017-12-05T21:24:53.205Z,83.3
2017-12-05T21:35:06.932Z,85
2017-12-05T21:45:22.175Z,85.4
2017-12-05T21:55:35.557Z,85.6
2017-12-05T22:05:49.311Z,86.8
2017-12-05T22:16:03.412Z,87.6
2017-12-05T22:26:18.023Z,89.1
2017-12-05T22:36:31.725Z,91.1
2017-12-05T22:46:46.946Z,92.8
2017-12-05T22:57:00.616Z,93.4
2017-12-05T23:07:14.896Z,93.2
2017-12-05T23:17:29.828Z,94.7
2017-12-05T23:27:44.610Z,94.2
